Albion, Rhode Island
Current Conditions -  °F | °C
As of 4:35 PM on Thursday 23 Oct 2014 (Local Time) from KSFZ Reporting Station
Overcast Overcast  
Wind Chill: 12°   Ceiling: 600
Heat Index: 12°   Visibility: 9mi
Dew Point:   Wind: 13mph
Humidity: 72%   Direction: 360°N
Pressure: 29.59"   Gusts: 23mph
Location:  41.95°N, 71.45°W
Report Text: KSFZ 232035Z 36011G20KT 9SM BKN006 OVC013 12/07 A2959 RMK AO1 P0006
Loading
Personal Weather Stations






























Interactive Weather Map New forecast layout! Learn more

10-Day Weather Forecast

Advertisements
Track Severe Weather on mobile